Time;durP1;ratioP1;P1;durP2;ratioP2;P2;SDS_P1;SDS_P2;PMS_P1;PMS_P2;Temp;Humidity;BMP_temperature;BMP_pressure;BME280_temperature;BME280_humidity;BME280_pressure;Samples;Min_cycle;Max_cycle;Signal;HPM_P1;HPM_P2
2022/08/07 00:00:21;;;;;;;3.40;2.77;;;12.80;1.00;;;;;;5032023;28;20195;-67
2022/08/07 00:02:47;;;;;;;5.27;4.77;;;12.70;1.00;;;;;;5033045;28;20414;-66
2022/08/07 00:05:13;;;;;;;4.60;4.07;;;12.70;1.00;;;;;;5033030;28;20526;-69
2022/08/07 00:07:38;;;;;;;6.53;3.87;;;12.70;1.00;;;;;;5032266;28;20602;-66
2022/08/07 00:10:04;;;;;;;4.77;4.03;;;12.70;1.00;;;;;;5033371;28;20191;-77
2022/08/07 00:12:30;;;;;;;7.33;4.47;;;12.70;1.00;;;;;;5031995;28;20171;-77
2022/08/07 00:14:57;;;;;;;6.50;4.03;;;12.70;1.00;;;;;;5032507;28;20406;-66
2022/08/07 00:17:23;;;;;;;9.80;4.37;;;12.70;1.00;;;;;;5032182;28;20195;-68
2022/08/07 00:19:49;;;;;;;7.67;4.03;;;12.60;1.00;;;;;;5031672;28;20429;-68
2022/08/07 00:22:15;;;;;;;4.30;3.13;;;12.50;1.00;;;;;;5033514;28;20433;-66
2022/08/07 00:24:41;;;;;;;5.63;4.27;;;12.40;1.00;;;;;;5033030;28;20402;-75
2022/08/07 00:27:06;;;;;;;3.57;3.00;;;12.40;1.00;;;;;;5029678;28;20433;-71
2022/08/07 00:29:32;;;;;;;4.77;3.30;;;12.40;1.00;;;;;;5050552;28;20202;-69
2022/08/07 00:31:58;;;;;;;4.20;3.80;;;12.30;1.00;;;;;;5052922;28;20167;-68
2022/08/07 00:34:27;;;;;;;3.53;3.23;;;12.30;1.00;;;;;;5051692;28;20170;-65
2022/08/07 00:36:53;;;;;;;4.03;3.67;;;12.20;1.00;;;;;;5034450;28;20393;-75
2022/08/07 00:39:19;;;;;;;6.40;4.40;;;12.20;1.00;;;;;;5033182;28;20501;-68
2022/08/07 00:41:50;;;;;;;4.40;4.00;;;12.20;1.00;;;;;;5034289;28;20523;-77
2022/08/07 00:44:15;;;;;;;5.10;4.03;;;12.20;1.00;;;;;;5053068;28;20175;-68
2022/08/07 00:46:41;;;;;;;4.57;4.10;;;12.20;1.00;;;;;;5037283;28;20487;-77
2022/08/07 00:49:08;;;;;;;4.80;4.40;;;12.20;1.00;;;;;;5032942;28;20594;-78
2022/08/07 00:51:34;;;;;;;4.10;3.80;;;12.20;1.00;;;;;;5032212;28;20168;-76
2022/08/07 00:53:59;;;;;;;6.90;4.93;;;12.20;1.00;;;;;;5033024;28;20493;-76
2022/08/07 00:56:26;;;;;;;4.20;3.80;;;12.20;1.00;;;;;;5033675;28;20182;-76
2022/08/07 00:58:51;;;;;;;3.50;3.20;;;12.20;1.00;;;;;;5051388;28;20249;-76
2022/08/07 01:01:19;;;;;;;8.23;3.97;;;12.20;1.00;;;;;;5043635;28;20422;-68
2022/08/07 01:03:45;;;;;;;5.23;4.43;;;12.20;1.00;;;;;;5036510;28;20167;-77
2022/08/07 01:06:11;;;;;;;5.90;4.80;;;12.20;1.00;;;;;;5035368;28;20426;-68
2022/08/07 01:08:38;;;;;;;4.57;4.13;;;12.20;1.00;;;;;;5036063;28;20466;-68
2022/08/07 01:11:04;;;;;;;10.83;5.67;;;12.20;1.00;;;;;;5039422;28;20429;-67
2022/08/07 01:13:29;;;;;;;5.30;4.40;;;12.20;1.00;;;;;;5056318;28;20738;-68
2022/08/07 01:15:57;;;;;;;6.43;4.57;;;12.20;1.00;;;;;;5037001;28;20388;-77
2022/08/07 01:18:23;;;;;;;5.47;3.93;;;12.30;1.10;;;;;;5035962;28;20188;-77
2022/08/07 01:21:16;;;;;;;4.13;3.73;;;12.20;10.90;;;;;;5036025;28;20425;-68
2022/08/07 01:23:44;;;;;;;5.40;3.90;;;12.20;9.10;;;;;;5035747;28;20418;-68
2022/08/07 01:26:12;;;;;;;4.80;4.20;;;12.20;19.10;;;;;;5043909;28;20459;-77
2022/08/07 01:28:41;;;;;;;4.23;3.83;;;12.20;17.50;;;;;;5056059;28;20448;-71
2022/08/07 01:31:08;;;;;;;6.20;4.67;;;12.20;1.00;;;;;;5037541;28;20389;-68
2022/08/07 01:33:34;;;;;;;9.87;4.80;;;12.20;11.80;;;;;;5036257;28;20365;-77
2022/08/07 01:36:01;;;;;;;4.90;4.00;;;12.20;10.40;;;;;;5034909;28;20436;-73
2022/08/07 01:38:30;;;;;;;5.53;4.53;;;12.10;18.00;;;;;;5055716;28;20434;-77
2022/08/07 01:41:02;;;;;;;5.57;4.60;;;12.10;6.40;;;;;;5035690;28;20393;-78
2022/08/07 01:43:28;;;;;;;5.13;4.53;;;12.10;1.90;;;;;;5034663;28;20771;-77
2022/08/07 01:45:55;;;;;;;7.00;4.80;;;12.10;1.00;;;;;;5035281;28;20775;-68
2022/08/07 01:48:22;;;;;;;6.00;4.23;;;12.10;1.00;;;;;;5034381;28;20853;-68
2022/08/07 01:50:58;;;;;;;5.87;5.47;;;12.10;1.00;;;;;;5041478;28;20964;-67
2022/08/07 01:53:26;;;;;;;9.23;4.40;;;12.10;1.00;;;;;;5045333;28;20388;-67
2022/08/07 01:55:57;;;;;;;8.53;6.17;;;12.10;1.00;;;;;;5035530;28;20438;-74
2022/08/07 01:58:29;;;;;;;7.03;4.87;;;12.00;1.00;;;;;;5034580;28;20441;-77
2022/08/07 02:01:01;;;;;;;6.23;4.10;;;12.00;1.00;;;;;;5035691;28;20403;-77
2022/08/07 02:03:29;;;;;;;8.03;6.17;;;12.00;1.00;;;;;;5035196;28;20393;-77
2022/08/07 02:05:58;;;;;;;6.33;4.30;;;12.00;1.00;;;;;;5046470;28;20404;-67
2022/08/07 02:08:26;;;;;;;5.63;4.47;;;12.00;1.00;;;;;;5045650;28;20473;-68
2022/08/07 02:10:55;;;;;;;6.43;3.97;;;12.00;1.00;;;;;;5035287;28;20423;-67
2022/08/07 02:13:23;;;;;;;4.97;4.43;;;12.00;1.00;;;;;;5034595;28;20512;-77
2022/08/07 02:15:52;;;;;;;4.43;4.03;;;12.00;1.00;;;;;;5035105;28;20378;-68
2022/08/07 02:18:19;;;;;;;6.47;5.30;;;12.00;1.00;;;;;;5033103;28;20447;-68
2022/08/07 02:20:47;;;;;;;4.73;4.23;;;11.90;1.00;;;;;;5049619;28;20407;-78
2022/08/07 02:23:15;;;;;;;5.07;4.57;;;11.90;1.00;;;;;;5049475;28;20433;-78
2022/08/07 02:25:42;;;;;;;5.73;4.40;;;11.90;1.00;;;;;;5035245;28;20406;-68
2022/08/07 02:28:08;;;;;;;5.07;4.47;;;11.90;1.00;;;;;;5033328;28;20827;-77
2022/08/07 02:30:35;;;;;;;5.87;4.57;;;11.90;1.00;;;;;;5035092;28;20485;-78
2022/08/07 02:33:02;;;;;;;5.43;4.93;;;11.90;1.00;;;;;;5034810;28;20398;-77
2022/08/07 02:35:33;;;;;;;6.00;5.40;;;11.90;1.00;;;;;;5049678;28;20400;-67
2022/08/07 02:38:02;;;;;;;4.57;4.13;;;11.90;11.00;;;;;;5048063;28;20416;-68
2022/08/07 02:40:29;;;;;;;6.40;4.20;;;11.90;3.70;;;;;;5034881;28;20377;-68
2022/08/07 02:42:56;;;;;;;5.27;4.80;;;11.90;1.00;;;;;;5034574;28;20432;-68
2022/08/07 02:45:25;;;;;;;5.60;4.63;;;11.90;13.40;;;;;;5034242;28;20422;-68
2022/08/07 02:47:51;;;;;;;5.50;4.73;;;11.90;20.90;;;;;;5032653;28;20440;-68
2022/08/07 02:50:16;;;;;;;6.37;5.40;;;11.90;14.00;;;;;;5054627;28;20421;-77
2022/08/07 02:52:55;;;;;;;6.50;4.80;;;11.90;10.30;;;;;;5048819;28;20405;-68
2022/08/07 02:55:25;;;;;;;5.60;5.10;;;11.90;4.10;;;;;;5034748;28;20175;-67
2022/08/07 02:57:52;;;;;;;4.73;4.20;;;11.90;1.00;;;;;;5033313;28;20462;-78
2022/08/07 03:00:18;;;;;;;4.43;3.97;;;11.90;1.00;;;;;;5034496;28;20469;-67
2022/08/07 03:02:46;;;;;;;7.40;5.20;;;11.90;1.00;;;;;;5035526;28;20491;-71
2022/08/07 03:05:14;;;;;;;5.20;4.70;;;11.90;1.00;;;;;;5054090;28;20476;-77
2022/08/07 03:07:40;;;;;;;8.27;5.07;;;11.90;1.00;;;;;;5049723;28;20450;-74
2022/08/07 03:10:08;;;;;;;15.07;4.83;;;11.90;1.00;;;;;;5034258;28;20411;-75
2022/08/07 03:12:35;;;;;;;5.13;4.70;;;11.90;1.00;;;;;;5033841;28;20381;-68
2022/08/07 03:15:02;;;;;;;5.80;5.00;;;12.00;1.00;;;;;;5034066;28;20738;-68
2022/08/07 03:17:29;;;;;;;5.83;5.33;;;11.90;5.30;;;;;;5033475;28;20474;-75
2022/08/07 03:19:55;;;;;;;4.90;4.23;;;11.90;33.40;;;;;;5034045;28;20895;-68
2022/08/07 03:22:23;;;;;;;6.17;4.60;;;11.90;9.40;;;;;;5033378;28;20468;-67
2022/08/07 03:24:49;;;;;;;6.10;4.70;;;11.90;11.00;;;;;;5033074;28;20167;-68
2022/08/07 03:27:16;;;;;;;8.27;5.50;;;11.90;1.00;;;;;;5032565;28;20369;-67
2022/08/07 03:29:52;;;;;;;7.00;5.67;;;11.90;1.00;;;;;;5034067;28;20423;-77
2022/08/07 03:32:32;;;;;;;6.10;5.43;;;11.90;1.00;;;;;;5033604;28;20404;-76
2022/08/07 03:35:02;;;;;;;5.23;4.73;;;11.90;1.00;;;;;;5040801;28;20497;-77
2022/08/07 03:37:31;;;;;;;5.40;4.90;;;11.90;1.00;;;;;;5045094;28;20513;-67
2022/08/07 03:39:57;;;;;;;6.20;5.43;;;11.90;1.00;;;;;;5032046;28;20381;-68
2022/08/07 03:42:24;;;;;;;6.30;5.67;;;11.90;1.00;;;;;;5032228;28;20498;-67
2022/08/07 03:44:51;;;;;;;12.23;5.33;;;11.90;1.00;;;;;;5032557;28;20409;-68
2022/08/07 03:47:20;;;;;;;4.70;4.30;;;11.90;1.00;;;;;;5033109;28;20492;-77
2022/08/07 03:49:46;;;;;;;6.23;5.37;;;11.90;1.00;;;;;;5032471;28;20413;-77
2022/08/07 03:52:13;;;;;;;6.20;5.37;;;11.90;1.00;;;;;;5032385;28;20420;-77
2022/08/07 03:54:39;;;;;;;5.30;4.80;;;11.90;1.00;;;;;;5033608;28;20255;-67
2022/08/07 03:57:06;;;;;;;8.13;5.90;;;11.90;1.00;;;;;;5031810;28;20476;-78
2022/08/07 03:59:32;;;;;;;6.03;5.43;;;11.90;1.00;;;;;;5033511;28;20163;-67
2022/08/07 04:01:59;;;;;;;6.50;5.10;;;11.90;1.00;;;;;;5038924;28;20411;-67
2022/08/07 04:04:25;;;;;;;6.17;5.57;;;11.90;1.00;;;;;;5033461;28;20373;-77
2022/08/07 04:06:51;;;;;;;6.13;5.50;;;11.90;10.40;;;;;;5032613;28;20392;-78
2022/08/07 04:09:18;;;;;;;8.07;5.57;;;11.90;1.00;;;;;;5031546;28;20207;-77
2022/08/07 04:11:45;;;;;;;12.20;6.20;;;11.90;1.00;;;;;;5033294;28;20415;-67
2022/08/07 04:14:11;;;;;;;6.40;5.73;;;11.90;1.00;;;;;;5033028;28;20377;-67
2022/08/07 04:16:37;;;;;;;7.87;6.03;;;11.90;8.80;;;;;;5043894;28;20478;-77
2022/08/07 04:19:03;;;;;;;5.53;5.07;;;12.00;12.30;;;;;;5033187;28;20385;-77
2022/08/07 04:21:30;;;;;;;5.30;4.80;;;11.90;2.20;;;;;;5032838;28;20384;-69
2022/08/07 04:23:57;;;;;;;8.97;5.00;;;12.00;20.80;;;;;;5032255;28;20388;-68
2022/08/07 04:26:23;;;;;;;8.13;5.60;;;11.90;1.00;;;;;;5032429;28;20504;-69
2022/08/07 04:28:49;;;;;;;7.80;5.40;;;12.00;1.00;;;;;;5029946;28;20477;-71
2022/08/07 04:31:15;;;;;;;7.83;6.00;;;12.00;12.60;;;;;;5052752;28;20444;-77
2022/08/07 04:33:41;;;;;;;7.30;5.40;;;12.10;1.50;;;;;;5050045;28;20170;-66
2022/08/07 04:36:07;;;;;;;5.80;5.30;;;12.10;6.30;;;;;;5032478;28;20418;-75
2022/08/07 04:38:34;;;;;;;7.30;5.77;;;12.20;7.80;;;;;;5036941;28;20464;-66
2022/08/07 04:41:00;;;;;;;7.90;5.30;;;12.20;1.00;;;;;;5035932;28;20890;-67
2022/08/07 04:43:35;;;;;;;5.43;4.80;;;12.20;1.00;;;;;;5037150;28;20422;-66
2022/08/07 04:46:36;;;;;;;4.80;4.30;;;12.20;1.00;;;;;;5016304;28;20237;-74
2022/08/07 04:49:17;;;;;;;4.97;3.80;;;12.30;1.00;;;;;;5020127;28;20549;-76
2022/08/07 04:52:10;;;;;;;6.27;5.50;;;12.30;1.00;;;;;;5036749;28;20413;-68
2022/08/07 04:55:02;;;;;;;8.50;5.30;;;12.40;1.00;;;;;;5017033;28;20407;-76
2022/08/07 04:57:52;;;;;;;5.23;4.43;;;12.40;1.00;;;;;;5020154;28;20430;-66
2022/08/07 05:00:27;;;;;;;6.57;4.57;;;12.40;1.00;;;;;;5056657;28;20409;-65
2022/08/07 05:03:20;;;;;;;6.70;4.60;;;12.50;1.00;;;;;;5049020;28;20406;-76
2022/08/07 05:06:04;;;;;;;6.43;5.30;;;12.60;3.30;;;;;;5036328;28;20391;-75
2022/08/07 05:08:49;;;;;;;7.73;6.17;;;12.70;1.00;;;;;;5035740;28;20980;-65
2022/08/07 05:11:33;;;;;;;7.47;4.87;;;12.70;1.00;;;;;;5034946;28;20778;-74
2022/08/07 05:14:05;;;;;;;7.57;5.40;;;12.80;3.80;;;;;;5048867;28;20467;-76
2022/08/07 05:16:33;;;;;;;8.90;4.90;;;12.80;9.40;;;;;;5049923;28;20410;-75
2022/08/07 05:19:10;;;;;;;9.53;6.27;;;12.90;15.40;;;;;;5036338;28;20430;-75
2022/08/07 05:21:37;;;;;;;6.77;4.57;;;13.00;36.70;;;;;;5035062;28;20457;-65
2022/08/07 05:24:09;;;;;;;7.33;5.30;;;13.10;51.40;;;;;;5034794;28;20425;-74
2022/08/07 05:26:36;;;;;;;6.57;5.90;;;13.20;37.40;;;;;;5034795;28;20404;-75
2022/08/07 05:29:06;;;;;;;6.40;5.80;;;13.20;25.50;;;;;;5051168;28;20826;-75
2022/08/07 05:31:37;;;;;;;6.33;5.03;;;13.40;36.00;;;;;;5056720;28;20406;-66
2022/08/07 05:34:05;;;;;;;7.87;5.70;;;13.40;19.20;;;;;;5035910;28;20816;-75
2022/08/07 05:36:32;;;;;;;6.27;5.63;;;13.50;18.40;;;;;;5035042;28;20805;-66
2022/08/07 05:38:59;;;;;;;7.73;5.30;;;13.60;23.10;;;;;;5036026;28;20453;-75
2022/08/07 05:41:25;;;;;;;8.83;6.57;;;13.60;27.90;;;;;;5038935;28;20433;-70
2022/08/07 05:43:54;;;;;;;6.90;5.50;;;13.60;10.60;;;;;;5035702;28;20541;-72
2022/08/07 05:46:20;;;;;;;6.73;5.87;;;13.80;17.80;;;;;;5034476;28;20426;-72
2022/08/07 05:48:49;;;;;;;8.57;6.00;;;13.90;14.90;;;;;;5033589;28;20554;-71
2022/08/07 05:51:15;;;;;;;10.40;7.30;;;13.90;3.10;;;;;;5035342;28;20390;-72
2022/08/07 05:53:41;;;;;;;6.53;5.90;;;14.00;5.30;;;;;;5035745;28;20477;-72
2022/08/07 05:56:08;;;;;;;7.50;6.63;;;14.20;1.00;;;;;;5040226;28;20851;-66
2022/08/07 05:58:37;;;;;;;7.60;6.27;;;14.40;1.00;;;;;;5035551;28;20545;-75
2022/08/07 06:01:06;;;;;;;7.60;6.40;;;14.50;9.30;;;;;;5034369;28;20410;-75
2022/08/07 06:03:34;;;;;;;7.67;6.60;;;14.60;2.80;;;;;;5035301;28;20425;-66
2022/08/07 06:06:01;;;;;;;6.57;5.20;;;14.80;7.20;;;;;;5034613;28;20418;-71
2022/08/07 06:08:27;;;;;;;8.10;6.73;;;14.90;24.90;;;;;;5035331;28;20481;-75
2022/08/07 06:10:53;;;;;;;7.37;6.00;;;15.00;22.10;;;;;;5042503;28;20421;-66
2022/08/07 06:13:19;;;;;;;10.23;6.20;;;15.10;10.40;;;;;;5034265;28;20953;-75
2022/08/07 06:15:48;;;;;;;7.20;6.20;;;15.10;1.00;;;;;;5034972;28;21216;-68
2022/08/07 06:18:14;;;;;;;6.37;5.70;;;15.20;1.00;;;;;;5034453;28;20427;-67
2022/08/07 06:20:43;;;;;;;8.63;6.50;;;15.20;1.00;;;;;;5034216;28;20849;-67
2022/08/07 06:23:09;;;;;;;9.00;6.17;;;15.30;1.00;;;;;;5034771;28;20422;-67
2022/08/07 06:25:39;;;;;;;7.50;5.70;;;15.40;1.00;;;;;;5037744;28;20945;-68
2022/08/07 06:28:07;;;;;;;7.10;5.70;;;15.40;1.00;;;;;;5035950;28;20545;-68
2022/08/07 06:30:38;;;;;;;7.73;5.93;;;15.40;1.00;;;;;;5034443;28;20953;-75
2022/08/07 06:33:05;;;;;;;7.07;5.07;;;15.40;1.00;;;;;;5020958;28;20456;-71
2022/08/07 06:35:33;;;;;;;6.63;5.87;;;15.40;1.00;;;;;;5034953;28;20406;-67
2022/08/07 06:37:59;;;;;;;7.77;5.83;;;15.40;1.00;;;;;;5031658;28;20584;-76
2022/08/07 06:40:26;;;;;;;7.23;5.43;;;15.50;1.00;;;;;;5036105;28;20997;-76
2022/08/07 06:42:52;;;;;;;9.83;5.10;;;15.50;1.00;;;;;;5027652;28;20269;-66
2022/08/07 06:45:21;;;;;;;7.60;5.40;;;15.60;1.00;;;;;;5045452;28;20428;-67
2022/08/07 06:47:47;;;;;;;5.33;4.90;;;15.70;1.00;;;;;;5031681;28;20545;-76
2022/08/07 06:50:13;;;;;;;6.63;4.80;;;15.80;1.00;;;;;;5034774;28;20942;-67
2022/08/07 06:52:43;;;;;;;5.90;5.00;;;15.90;1.00;;;;;;5034087;28;20414;-75
2022/08/07 06:55:13;;;;;;;5.87;4.93;;;16.00;1.00;;;;;;5034454;28;20414;-67
2022/08/07 06:57:40;;;;;;;5.03;4.50;;;16.00;1.00;;;;;;5032525;28;20776;-66
2022/08/07 07:00:06;;;;;;;6.37;4.90;;;16.10;1.00;;;;;;5033668;28;20505;-67
2022/08/07 07:02:35;;;;;;;7.33;5.00;;;16.30;1.00;;;;;;5034091;28;20410;-75
2022/08/07 07:05:01;;;;;;;7.50;4.83;;;16.30;1.00;;;;;;5034147;28;20490;-68
2022/08/07 07:07:27;;;;;;;6.57;4.90;;;16.40;1.00;;;;;;5033283;28;20414;-67
2022/08/07 07:09:52;;;;;;;5.97;4.50;;;16.40;1.00;;;;;;5034270;28;20402;-75
2022/08/07 07:12:21;;;;;;;6.87;4.93;;;16.40;1.00;;;;;;5034350;28;20191;-67
2022/08/07 07:14:59;;;;;;;5.87;5.30;;;16.30;1.00;;;;;;5034008;28;20175;-75
2022/08/07 07:17:32;;;;;;;8.97;5.07;;;16.30;1.00;;;;;;5033039;28;20468;-75
2022/08/07 07:20:01;;;;;;;10.50;5.40;;;16.30;1.00;;;;;;5034136;28;20413;-75
2022/08/07 07:22:28;;;;;;;6.97;6.33;;;16.50;1.00;;;;;;5034105;28;20402;-67
2022/08/07 07:24:55;;;;;;;6.63;5.50;;;16.50;1.00;;;;;;5032714;28;20489;-67
2022/08/07 07:27:24;;;;;;;5.53;5.03;;;16.70;1.00;;;;;;5033349;28;20461;-68
2022/08/07 07:29:55;;;;;;;8.80;5.10;;;16.80;1.00;;;;;;5034080;28;20418;-74
2022/08/07 07:32:23;;;;;;;6.73;4.90;;;16.80;1.00;;;;;;5032553;28;20454;-67
2022/08/07 07:34:54;;;;;;;6.27;5.30;;;16.80;1.00;;;;;;5032643;28;20411;-67
2022/08/07 07:37:22;;;;;;;9.33;5.37;;;16.90;1.00;;;;;;5032382;28;20450;-77
2022/08/07 07:39:51;;;;;;;8.70;5.30;;;17.00;1.00;;;;;;5033932;28;20829;-68
2022/08/07 07:42:17;;;;;;;8.63;5.37;;;17.10;1.00;;;;;;5032734;28;20421;-76
2022/08/07 07:44:45;;;;;;;6.93;4.50;;;17.10;1.00;;;;;;5032395;28;20445;-75
2022/08/07 07:47:14;;;;;;;7.00;4.67;;;17.30;1.00;;;;;;5032763;28;20499;-74
2022/08/07 07:49:42;;;;;;;6.40;5.40;;;17.40;1.00;;;;;;5033327;28;20537;-75
2022/08/07 07:52:09;;;;;;;7.70;5.73;;;17.60;1.00;;;;;;5032680;28;20403;-75
2022/08/07 07:54:36;;;;;;;6.97;5.47;;;17.80;1.00;;;;;;5033684;28;20883;-67
2022/08/07 07:57:03;;;;;;;5.37;4.83;;;17.90;1.00;;;;;;5032693;28;20406;-67
2022/08/07 07:59:29;;;;;;;5.50;4.93;;;18.10;1.00;;;;;;5032589;28;20418;-67
2022/08/07 08:01:57;;;;;;;9.97;4.60;;;18.10;1.00;;;;;;5032515;28;20480;-67
2022/08/07 08:04:24;;;;;;;6.90;4.33;;;18.00;99.90;;;;;;5033726;28;20460;-67
2022/08/07 08:06:51;;;;;;;6.13;4.00;;;18.00;1.00;;;;;;5031640;28;20426;-72
2022/08/07 08:09:21;;;;;;;4.47;3.93;;;18.10;1.00;;;;;;5032897;28;20466;-76
2022/08/07 08:11:48;;;;;;;6.23;5.00;;;18.30;1.00;;;;;;5033069;28;20405;-75
2022/08/07 08:14:14;;;;;;;4.97;4.17;;;18.40;1.00;;;;;;5033375;28;20402;-68
2022/08/07 08:16:43;;;;;;;4.50;4.10;;;18.50;1.00;;;;;;5031677;28;20411;-68
2022/08/07 08:19:14;;;;;;;5.97;4.53;;;18.50;1.00;;;;;;5033220;28;20426;-68
2022/08/07 08:27:18;;;;;;;7.77;5.27;;;18.30;1.00;;;;;;5032656;28;20456;-75
2022/08/07 08:29:49;;;;;;;5.13;4.63;;;18.30;1.00;;;;;;5033077;28;20450;-66
2022/08/07 08:32:19;;;;;;;4.67;4.27;;;18.40;1.00;;;;;;5033246;28;20472;-75
2022/08/07 08:34:47;;;;;;;5.83;3.90;;;18.60;1.00;;;;;;5033166;28;20399;-68
2022/08/07 08:37:15;;;;;;;6.50;4.53;;;18.50;1.00;;;;;;5031010;28;20406;-67
2022/08/07 08:39:43;;;;;;;5.50;5.00;;;18.50;1.00;;;;;;5033075;28;20448;-76
2022/08/07 08:42:48;;;;;;;6.20;5.00;;;18.50;1.00;;;;;;5031607;28;20439;-76
2022/08/07 08:45:25;;;;;;;4.90;4.50;;;18.40;1.00;;;;;;5031581;28;20406;-67
2022/08/07 08:48:12;;;;;;;8.90;4.37;;;18.30;99.90;;;;;;5030959;28;20460;-77
2022/08/07 08:50:53;;;;;;;4.67;4.07;;;18.40;99.90;;;;;;5031806;28;20402;-68
2022/08/07 08:53:46;;;;;;;4.40;3.97;;;18.40;99.90;;;;;;5033126;28;20428;-67
2022/08/07 08:56:18;;;;;;;4.20;3.87;;;18.40;99.90;;;;;;5031217;28;20414;-68
2022/08/07 08:59:13;;;;;;;6.40;4.47;;;18.40;99.90;;;;;;5033067;28;20866;-67
2022/08/07 09:01:49;;;;;;;4.30;3.57;;;18.40;99.90;;;;;;5031367;28;20406;-75
2022/08/07 09:04:40;;;;;;;4.47;4.07;;;18.30;1.00;;;;;;5032983;28;20795;-67
2022/08/07 09:07:17;;;;;;;5.30;4.80;;;18.50;1.00;;;;;;5030854;28;20759;-76
2022/08/07 09:10:09;;;;;;;5.83;3.87;;;18.50;1.00;;;;;;5032717;28;20449;-75
2022/08/07 09:12:46;;;;;;;5.20;4.27;;;18.50;99.90;;;;;;5031519;28;20414;-76
2022/08/07 09:15:40;;;;;;;4.23;3.77;;;18.40;99.90;;;;;;5032819;28;20921;-75
2022/08/07 09:18:32;;;;;;;4.10;3.67;;;18.30;99.90;;;;;;5031694;28;20460;-72
2022/08/07 09:21:25;;;;;;;4.30;3.90;;;18.40;99.90;;;;;;5031689;28;20410;-67
2022/08/07 09:24:09;;;;;;;4.80;4.20;;;18.50;1.00;;;;;;5034137;28;20817;-75
2022/08/07 09:26:50;;;;;;;3.50;3.20;;;18.60;99.90;;;;;;5035641;28;20909;-67
2022/08/07 09:29:37;;;;;;;5.53;4.70;;;18.50;99.90;;;;;;5034842;28;20484;-75
2022/08/07 09:32:35;;;;;;;4.40;4.00;;;18.70;99.90;;;;;;5036097;28;20410;-66
2022/08/07 09:35:39;;;;;;;4.17;3.77;;;18.70;1.00;;;;;;5035921;28;20412;-75
2022/08/07 09:38:06;;;;;;;4.40;4.00;;;18.70;1.00;;;;;;5034931;28;20428;-67
2022/08/07 09:40:57;;;;;;;4.00;3.70;;;18.80;1.00;;;;;;5035773;28;20422;-66
2022/08/07 09:43:37;;;;;;;4.30;3.43;;;19.10;1.00;;;;;;5035939;28;20394;-75
2022/08/07 09:46:16;;;;;;;4.80;4.23;;;19.30;1.00;;;;;;5033756;28;20426;-67
2022/08/07 09:48:51;;;;;;;5.80;4.23;;;19.40;1.00;;;;;;5034466;28;21009;-76
2022/08/07 09:51:53;;;;;;;7.23;4.33;;;19.50;99.90;;;;;;5035973;28;20425;-66
2022/08/07 09:54:25;;;;;;;8.20;4.20;;;19.40;1.00;;;;;;5034634;28;20414;-67
2022/08/07 09:56:50;;;;;;;6.23;4.30;;;19.40;1.00;;;;;;5033711;28;20403;-74
2022/08/07 09:59:53;;;;;;;5.27;4.00;;;19.60;99.90;;;;;;5034237;28;20427;-76
2022/08/07 10:02:34;;;;;;;4.83;4.20;;;19.80;99.90;;;;;;5035635;28;20176;-75
2022/08/07 10:05:21;;;;;;;10.23;4.83;;;20.00;1.00;;;;;;5035650;28;20794;-66
2022/08/07 10:07:55;;;;;;;10.73;4.60;;;20.80;1.00;;;;;;5034723;28;20516;-75
2022/08/07 10:10:27;;;;;;;4.53;4.00;;;21.20;99.90;;;;;;5035462;28;20455;-69
2022/08/07 10:13:21;;;;;;;7.83;3.53;;;21.20;99.90;;;;;;5035446;28;20409;-67
2022/08/07 10:16:38;;;;;;;5.60;3.60;;;21.10;99.90;;;;;;5034631;28;20414;-67
2022/08/07 10:19:27;;;;;;;5.70;4.47;;;21.10;99.90;;;;;;5033522;28;20441;-76
2022/08/07 10:22:21;;;;;;;3.93;3.53;;;20.70;99.90;;;;;;5033976;28;20917;-74
2022/08/07 10:25:11;;;;;;;3.70;3.40;;;20.70;99.90;;;;;;5034979;28;20441;-67
2022/08/07 10:28:25;;;;;;;4.20;3.87;;;20.80;99.90;;;;;;5033720;28;20438;-75
2022/08/07 10:30:53;;;;;;;9.63;4.97;;;21.50;99.90;;;;;;5048740;28;20410;-68
2022/08/07 10:33:31;;;;;;;4.13;3.73;;;22.10;99.90;;;;;;5033715;28;20509;-67
2022/08/07 10:36:27;;;;;;;5.07;3.40;;;22.00;99.90;;;;;;5034023;28;20406;-67
2022/08/07 10:39:01;;;;;;;4.20;3.37;;;21.80;99.90;;;;;;5033570;28;20601;-76
2022/08/07 10:41:45;;;;;;;4.20;3.23;;;21.40;99.90;;;;;;5034917;28;20405;-67
2022/08/07 10:44:44;;;;;;;3.30;3.00;;;21.10;99.90;;;;;;5034476;28;20455;-73
2022/08/07 10:47:35;;;;;;;3.70;3.40;;;21.10;99.90;;;;;;5033651;28;20488;-67
2022/08/07 10:50:22;;;;;;;4.30;3.90;;;21.30;99.90;;;;;;5014946;28;20427;-75
2022/08/07 10:52:51;;;;;;;3.30;3.07;;;21.60;99.90;;;;;;5016972;28;20887;-67
2022/08/07 10:55:25;;;;;;;3.80;3.50;;;22.10;99.90;;;;;;5034306;28;20449;-76
2022/08/07 10:58:10;;;;;;;8.43;2.80;;;22.50;99.90;;;;;;5032437;28;20506;-67
2022/08/07 11:00:45;;;;;;;3.03;2.83;;;22.30;99.90;;;;;;5034475;28;20747;-75
2022/08/07 11:03:22;;;;;;;5.57;3.20;;;21.60;99.90;;;;;;5032834;28;20756;-69
2022/08/07 11:06:16;;;;;;;2.83;2.63;;;21.30;99.90;;;;;;5034251;28;20875;-68
2022/08/07 11:08:47;;;;;;;3.77;3.33;;;20.70;99.90;;;;;;5033909;28;20564;-67
2022/08/07 11:11:23;;;;;;;3.50;3.30;;;20.40;99.90;;;;;;5034436;28;20406;-68
2022/08/07 11:14:07;;;;;;;4.30;3.90;;;20.10;99.90;;;;;;5033303;28;20410;-75
2022/08/07 11:16:47;;;;;;;6.47;3.87;;;19.70;99.90;;;;;;5031981;28;20949;-74
2022/08/07 11:19:37;;;;;;;9.33;4.50;;;19.40;99.90;;;;;;5032565;28;20441;-67
2022/08/07 11:22:25;;;;;;;4.03;3.63;;;19.30;99.90;;;;;;5033125;28;20444;-75
2022/08/07 11:24:59;;;;;;;4.07;3.40;;;19.20;99.90;;;;;;5033694;28;20914;-76
2022/08/07 11:27:30;;;;;;;5.10;3.80;;;19.20;99.90;;;;;;5032702;28;20952;-68
2022/08/07 11:30:05;;;;;;;8.67;4.03;;;19.20;99.90;;;;;;5033659;28;20423;-67
2022/08/07 11:32:34;;;;;;;6.10;4.77;;;19.20;99.90;;;;;;5033233;28;20743;-67
2022/08/07 11:35:10;;;;;;;4.07;3.77;;;19.10;99.90;;;;;;5033755;28;20426;-76
2022/08/07 11:37:44;;;;;;;5.63;4.63;;;19.00;99.90;;;;;;5032698;28;20417;-67
2022/08/07 11:40:19;;;;;;;7.27;4.27;;;19.00;99.90;;;;;;5033810;28;20390;-68
2022/08/07 11:43:05;;;;;;;5.23;4.73;;;19.00;99.90;;;;;;5033394;28;20414;-76
2022/08/07 11:46:07;;;;;;;4.90;4.17;;;19.00;99.90;;;;;;5032045;28;20783;-75
2022/08/07 11:48:47;;;;;;;6.33;4.77;;;18.80;99.90;;;;;;5030543;28;20515;-67
2022/08/07 11:51:42;;;;;;;5.03;4.60;;;18.90;99.90;;;;;;5012879;28;20467;-67
2022/08/07 11:54:55;;;;;;;5.63;4.03;;;18.90;99.90;;;;;;5027313;28;20415;-75
2022/08/07 11:58:03;;;;;;;6.17;4.40;;;19.20;99.90;;;;;;5031191;28;20911;-76
2022/08/07 12:00:38;;;;;;;4.03;3.73;;;19.60;99.90;;;;;;5013049;28;20419;-75
2022/08/07 12:03:25;;;;;;;5.37;4.37;;;19.80;99.90;;;;;;5017016;28;20914;-75
2022/08/07 12:05:56;;;;;;;5.67;4.60;;;20.20;99.90;;;;;;5033478;28;20791;-67
2022/08/07 12:08:31;;;;;;;4.30;3.73;;;21.00;99.90;;;;;;5031853;28;20461;-68
2022/08/07 12:11:14;;;;;;;3.60;3.30;;;21.70;99.90;;;;;;5032398;28;20909;-74
2022/08/07 12:14:15;;;;;;;5.27;4.67;;;21.60;99.90;;;;;;5033771;28;20406;-69
2022/08/07 12:16:49;;;;;;;4.80;3.70;;;21.30;99.90;;;;;;5032431;28;20489;-69
2022/08/07 12:19:50;;;;;;;5.17;4.03;;;21.20;99.90;;;;;;5031533;28;20456;-75
2022/08/07 12:22:22;;;;;;;5.90;3.80;;;21.10;99.90;;;;;;5033199;28;20406;-76
2022/08/07 12:27:49;;;;;;;3.70;3.40;;;22.50;99.90;;;;;;5031622;28;20459;-71
2022/08/07 12:30:18;;;;;;;3.13;2.87;;;23.70;99.90;;;;;;5029901;28;20954;-73
2022/08/07 12:32:59;;;;;;;3.17;2.97;;;23.90;99.90;;;;;;5033176;28;20438;-72
2022/08/07 12:35:27;;;;;;;3.20;2.97;;;24.40;99.90;;;;;;5032822;28;20402;-72
2022/08/07 12:37:54;;;;;;;4.03;3.20;;;24.40;99.90;;;;;;5032068;28;20927;-72
2022/08/07 12:40:25;;;;;;;5.37;3.90;;;24.10;99.90;;;;;;5032827;28;20418;-72
2022/08/07 12:42:53;;;;;;;3.27;2.97;;;23.30;99.90;;;;;;5032523;28;20810;-72
2022/08/07 12:45:24;;;;;;;3.77;3.47;;;22.90;99.90;;;;;;5032580;28;20504;-73
2022/08/07 12:48:26;;;;;;;2.83;2.63;;;22.60;99.90;;;;;;5032022;28;20426;-72
2022/08/07 12:51:03;;;;;;;3.53;3.33;;;22.20;99.90;;;;;;5032764;28;20418;-71
2022/08/07 12:53:44;;;;;;;3.37;3.17;;;21.70;99.90;;;;;;5032801;28;20883;-70
2022/08/07 12:56:23;;;;;;;3.10;2.90;;;21.30;99.90;;;;;;5031924;28;20953;-73
2022/08/07 12:58:50;;;;;;;3.70;3.40;;;21.60;99.90;;;;;;5035626;28;20433;-71
2022/08/07 13:01:22;;;;;;;5.10;3.10;;;21.80;99.90;;;;;;5036537;28;20471;-72
2022/08/07 13:03:59;;;;;;;4.40;3.47;;;21.80;99.90;;;;;;5036694;28;20413;-72
2022/08/07 13:06:30;;;;;;;5.03;3.60;;;21.90;99.90;;;;;;5035769;28;20767;-74
2022/08/07 13:09:23;;;;;;;4.30;3.67;;;22.30;99.90;;;;;;5036498;28;20462;-73
2022/08/07 13:12:34;;;;;;;8.40;2.87;;;22.50;99.90;;;;;;5035224;28;20458;-71
2022/08/07 13:15:31;;;;;;;3.60;3.30;;;22.90;99.90;;;;;;5039553;28;20488;-71
2022/08/07 13:18:12;;;;;;;3.10;2.90;;;23.10;99.90;;;;;;5035368;28;21003;-73
2022/08/07 13:20:45;;;;;;;3.70;2.97;;;23.50;99.90;;;;;;5026956;28;20429;-72
2022/08/07 13:23:19;;;;;;;3.20;3.00;;;23.70;99.90;;;;;;5016889;28;20855;-71
2022/08/07 13:25:53;;;;;;;3.57;2.60;;;24.10;99.90;;;;;;5016279;28;20411;-71
2022/08/07 13:28:25;;;;;;;4.77;3.40;;;24.60;99.90;;;;;;5015909;28;20553;-71
2022/08/07 13:31:01;;;;;;;4.13;3.40;;;24.60;99.90;;;;;;5027949;28;20419;-72
2022/08/07 13:33:47;;;;;;;3.80;3.07;;;24.50;99.90;;;;;;5016427;28;20425;-72